Aviation Digital Data Service (ADDS)

Output produced by METARs form (1309 UTC 15 November 2018)
found at http://www.aviationweather.gov/metar/data/
 
TAF SYCJ 151100Z 1512/1612 08012KT 9999 BKN018 BKN040 
     TEMPO 1515/1519 4000 TSRA FEW014CB BKN015 
     BECMG 1522/1600 06006KT 9999 SCT015 BKN090 
     BECMG 1605/1607 4000 BR SCT014 SCT038
       
TAF SYKM 151100Z 1512/1523 06010KT 9999 BKN015 BKN040 
     TEMPO 1516/1522 5000 TSRA FEW013CB BKN014 BKN090
       
TAF SYLT 151100Z 1512/1523 06010KT 9999 BKN028 BKN045 
     TEMPO 1515/1519 6000 SHRA FEW015CB BKN016